Time;durP1;ratioP1;P1;durP2;ratioP2;P2;SDS_P1;SDS_P2;PMS_P1;PMS_P2;Temp;Humidity;BMP_temperature;BMP_pressure;BME280_temperature;BME280_humidity;BME280_pressure;Samples;Min_cycle;Max_cycle;Signal;HPM_P1;HPM_P2
2023/04/08 00:00:44;;;;;;;6.13;4.70;;;5.70;99.90;5.60;100880.00;;;;4912529;28;117535;-65
2023/04/08 00:03:10;;;;;;;7.53;4.87;;;5.80;99.90;5.70;100892.00;;;;4909200;28;87785;-64
2023/04/08 00:05:36;;;;;;;7.13;4.03;;;5.80;99.90;5.70;100889.00;;;;4910471;28;108236;-64
2023/04/08 00:08:01;;;;;;;11.60;5.03;;;5.80;99.90;5.70;100885.00;;;;4908253;28;118792;-64
2023/04/08 00:10:27;;;;;;;6.83;4.77;;;5.90;99.90;5.70;100889.00;;;;4904930;28;117440;-65
2023/04/08 00:12:54;;;;;;;10.27;4.80;;;5.80;99.90;5.70;100887.00;;;;4913652;28;110383;-65
2023/04/08 00:15:19;;;;;;;9.23;4.07;;;5.90;99.90;5.70;100887.00;;;;4909938;28;87753;-65
2023/04/08 00:17:45;;;;;;;6.17;5.00;;;5.90;99.90;5.70;100886.00;;;;4908776;28;118717;-65
2023/04/08 00:20:12;;;;;;;8.10;5.30;;;5.80;99.90;5.80;100882.00;;;;4911066;28;87890;-64
2023/04/08 00:22:37;;;;;;;6.20;4.50;;;5.90;99.90;5.80;100881.00;;;;4910700;28;87754;-63
2023/04/08 00:25:05;;;;;;;8.43;4.40;;;6.00;99.90;5.80;100881.00;;;;4910850;28;109016;-64
2023/04/08 00:27:32;;;;;;;6.50;3.70;;;5.90;99.90;5.80;100880.00;;;;4909837;28;88736;-64
2023/04/08 00:29:59;;;;;;;5.43;3.33;;;5.90;99.90;5.80;100877.00;;;;4908971;28;96434;-63
2023/04/08 00:32:25;;;;;;;4.50;3.43;;;6.00;99.90;5.80;100881.00;;;;4907089;28;87930;-63
2023/04/08 00:34:51;;;;;;;5.27;3.53;;;6.40;99.90;5.80;100888.00;;;;4910390;28;98643;-62
2023/04/08 00:37:17;;;;;;;7.40;3.53;;;5.90;99.90;5.80;100885.00;;;;4909653;28;89507;-64
2023/04/08 00:39:42;;;;;;;5.90;4.03;;;5.90;99.90;5.80;100884.00;;;;4907807;28;117364;-63
2023/04/08 00:42:08;;;;;;;4.47;4.00;;;6.60;99.90;5.80;100882.00;;;;4907869;28;101879;-63
2023/04/08 00:44:34;;;;;;;4.90;3.03;;;6.00;99.90;5.80;100876.00;;;;4912032;28;87938;-62
2023/04/08 00:47:00;;;;;;;5.07;4.20;;;6.00;99.90;5.80;100894.00;;;;4913157;28;118917;-62
2023/04/08 00:49:25;;;;;;;8.03;3.13;;;5.90;99.90;5.80;100884.00;;;;4911332;28;88106;-62
2023/04/08 00:51:52;;;;;;;4.97;3.77;;;6.00;99.90;5.90;100882.00;;;;4910710;28;87999;-62
2023/04/08 00:54:18;;;;;;;6.67;4.80;;;6.00;99.90;5.90;100884.00;;;;4908369;28;99553;-60
2023/04/08 00:56:44;;;;;;;4.27;3.77;;;6.00;99.90;5.90;100885.00;;;;4908269;28;88819;-62
2023/04/08 00:59:10;;;;;;;7.70;3.73;;;6.00;99.90;5.90;100886.00;;;;4909514;28;87925;-61
2023/04/08 01:02:06;;;;;;;4.23;3.23;;;6.00;99.90;5.80;100880.00;;;;4905973;28;111367;-62
2023/04/08 01:05:01;;;;;;;6.27;3.73;;;6.00;99.90;5.80;100875.00;;;;4920135;28;101508;-61
2023/04/08 01:07:49;;;;;;;5.80;4.13;;;6.00;99.90;5.80;100874.00;;;;4913191;28;87790;-63
2023/04/08 01:10:37;;;;;;;5.73;3.27;;;6.00;99.90;5.80;100873.00;;;;4909684;28;87795;-62
2023/04/08 01:13:10;;;;;;;3.17;2.87;;;6.00;99.90;5.90;100889.00;;;;4909326;28;87845;-62
2023/04/08 01:15:40;;;;;;;5.00;3.40;;;5.90;99.90;5.90;100876.00;;;;4912336;28;87911;-64
2023/04/08 01:18:11;;;;;;;11.90;4.13;;;6.20;99.90;5.90;100880.00;;;;4919982;28;88061;-64
2023/04/08 01:20:39;;;;;;;5.77;3.73;;;6.00;99.90;5.90;100885.00;;;;4906267;28;87478;-65
2023/04/08 01:23:27;;;;;;;4.77;4.23;;;6.00;99.90;5.80;100879.00;;;;4904946;28;87819;-62
2023/04/08 01:25:54;;;;;;;7.03;4.60;;;6.00;99.90;5.90;100891.00;;;;4910474;28;88016;-63
2023/04/08 01:28:26;;;;;;;7.33;3.10;;;6.60;99.90;5.90;100886.00;;;;4906114;28;89728;-63
2023/04/08 01:30:56;;;;;;;4.60;3.50;;;6.40;99.90;5.90;100887.00;;;;4907631;28;89586;-64
2023/04/08 01:33:23;;;;;;;5.83;2.67;;;6.60;99.90;5.90;100876.00;;;;4908893;28;87959;-64
2023/04/08 01:35:51;;;;;;;5.77;2.73;;;6.00;99.90;5.90;100879.00;;;;4906450;28;96030;-64
2023/04/08 01:38:18;;;;;;;4.87;3.53;;;6.00;99.90;5.90;100885.00;;;;4908610;28;89021;-63
2023/04/08 01:40:46;;;;;;;5.80;3.50;;;6.10;99.90;5.90;100881.00;;;;4907936;28;88535;-63
2023/04/08 01:43:15;;;;;;;3.33;2.63;;;6.00;99.90;5.90;100887.00;;;;4906762;28;87865;-64
2023/04/08 01:45:44;;;;;;;3.03;2.60;;;6.00;99.90;5.90;100878.00;;;;4908583;28;86997;-65
2023/04/08 01:48:13;;;;;;;5.57;3.83;;;6.10;99.90;5.90;100883.00;;;;4909500;28;88025;-64
2023/04/08 01:50:44;;;;;;;5.17;2.20;;;6.50;99.90;5.90;100876.00;;;;4920901;28;88513;-63
2023/04/08 01:53:11;;;;;;;4.27;3.87;;;6.00;99.90;5.90;100883.00;;;;4907329;28;89906;-63
2023/04/08 01:55:39;;;;;;;4.00;3.20;;;6.60;99.90;5.90;100890.00;;;;4905552;28;88561;-64
2023/04/08 01:58:08;;;;;;;3.33;2.00;;;6.00;99.90;5.90;100883.00;;;;4904494;28;87994;-64
2023/04/08 02:00:35;;;;;;;4.90;3.10;;;6.80;99.90;5.90;100882.00;;;;4909737;28;88256;-64
2023/04/08 02:03:04;;;;;;;3.40;2.83;;;5.90;99.90;5.90;100871.00;;;;4909827;28;87933;-64
2023/04/08 02:05:30;;;;;;;6.10;2.83;;;6.00;99.90;5.90;100885.00;;;;4912691;28;89914;-64
2023/04/08 02:07:56;;;;;;;4.57;3.10;;;6.00;99.90;5.90;100887.00;;;;4908580;28;88431;-65
2023/04/08 02:10:21;;;;;;;3.53;2.93;;;6.00;99.90;5.90;100883.00;;;;4910888;28;100042;-64
2023/04/08 02:12:47;;;;;;;5.90;3.60;;;6.00;99.90;5.90;100882.00;;;;4906494;28;111464;-63
2023/04/08 02:15:13;;;;;;;5.37;2.90;;;6.10;99.90;5.90;100879.00;;;;4921521;28;88071;-64
2023/04/08 02:17:54;;;;;;;4.57;2.47;;;6.10;99.90;5.90;100885.00;;;;4906934;28;89784;-65
2023/04/08 02:20:26;;;;;;;4.57;2.90;;;6.10;99.90;5.90;100887.00;;;;4907461;28;108948;-65
2023/04/08 02:22:53;;;;;;;5.57;3.60;;;6.00;99.90;5.90;100884.00;;;;4905157;28;102831;-64
2023/04/08 02:25:24;;;;;;;5.90;3.50;;;6.50;99.90;5.90;100882.00;;;;4907237;28;95136;-63
2023/04/08 02:27:51;;;;;;;4.37;2.50;;;6.60;99.90;5.90;100890.00;;;;4906673;28;88042;-65
2023/04/08 02:30:18;;;;;;;3.33;2.67;;;6.00;99.90;5.90;100885.00;;;;4903870;28;87948;-64
2023/04/08 02:32:46;;;;;;;4.03;2.93;;;6.70;99.90;6.00;100892.00;;;;4909120;28;87610;-63
2023/04/08 02:35:15;;;;;;;2.97;2.13;;;6.10;99.90;6.00;100885.00;;;;4923838;28;87486;-64
2023/04/08 02:37:40;;;;;;;4.77;2.43;;;6.10;99.90;5.90;100899.00;;;;4912692;28;88694;-63
2023/04/08 02:40:30;;;;;;;3.63;2.70;;;6.00;99.90;5.90;100894.00;;;;4905413;28;115504;-63
2023/04/08 02:42:56;;;;;;;3.97;3.10;;;6.10;99.90;6.00;100899.00;;;;4908267;28;88748;-63
2023/04/08 02:45:30;;;;;;;5.80;3.23;;;6.10;99.90;6.00;100899.00;;;;4910703;28;99084;-63
2023/04/08 02:47:58;;;;;;;4.07;3.03;;;6.10;99.90;6.00;100906.00;;;;4921194;28;89311;-63
2023/04/08 02:50:23;;;;;;;4.50;2.57;;;6.60;99.90;6.00;100896.00;;;;4903876;28;88645;-63
2023/04/08 02:52:49;;;;;;;4.17;2.50;;;6.20;99.90;6.00;100886.00;;;;4905997;28;104835;-63
2023/04/08 02:55:15;;;;;;;2.53;1.87;;;6.70;99.90;6.10;100889.00;;;;4905430;28;109041;-63
2023/04/08 02:57:42;;;;;;;3.03;2.47;;;6.20;99.90;6.10;100899.00;;;;4905562;28;88143;-63
2023/04/08 03:00:09;;;;;;;4.90;2.33;;;6.30;99.90;6.10;100898.00;;;;4908851;28;118188;-63
2023/04/08 03:02:35;;;;;;;3.37;2.00;;;6.20;99.90;6.10;100895.00;;;;4906008;28;87762;-63
2023/04/08 03:05:01;;;;;;;5.50;2.20;;;6.20;99.90;6.10;100906.00;;;;4908872;28;95999;-64
2023/04/08 03:07:27;;;;;;;4.63;2.57;;;6.30;99.90;6.10;100904.00;;;;4906566;28;89387;-65
2023/04/08 03:09:54;;;;;;;2.97;2.40;;;6.20;99.90;6.10;100903.00;;;;4904932;28;117661;-64
2023/04/08 03:12:21;;;;;;;3.93;1.77;;;6.20;99.90;6.10;100900.00;;;;4911153;28;87804;-64
2023/04/08 03:14:46;;;;;;;5.10;2.67;;;6.80;99.90;6.10;100896.00;;;;4907118;28;100656;-64
2023/04/08 03:17:12;;;;;;;5.40;2.70;;;6.20;99.90;6.10;100908.00;;;;4906828;28;110260;-62
2023/04/08 03:19:38;;;;;;;3.23;2.37;;;6.70;99.90;6.10;100910.00;;;;4909936;28;88150;-64
2023/04/08 03:22:03;;;;;;;4.50;2.43;;;6.20;99.90;6.10;100901.00;;;;4904349;28;110454;-63
2023/04/08 03:24:29;;;;;;;5.60;3.20;;;6.20;99.90;6.10;100905.00;;;;4906687;28;108862;-65
2023/04/08 03:26:55;;;;;;;8.90;3.43;;;6.80;99.90;6.10;100895.00;;;;4907390;28;88927;-63
2023/04/08 03:29:20;;;;;;;6.20;3.33;;;6.30;99.90;6.10;100900.00;;;;4904769;28;117913;-63
2023/04/08 03:31:46;;;;;;;5.77;3.57;;;6.30;99.90;6.20;100901.00;;;;4906289;28;100779;-65
2023/04/08 03:34:12;;;;;;;5.60;3.70;;;6.20;99.90;6.20;100908.00;;;;4906814;28;108019;-64
2023/04/08 03:36:37;;;;;;;5.87;3.33;;;6.80;99.90;6.20;100897.00;;;;4907357;28;117968;-64
2023/04/08 03:39:03;;;;;;;3.97;3.03;;;6.40;99.90;6.20;100895.00;;;;4907146;28;87803;-65
2023/04/08 03:41:29;;;;;;;3.70;3.10;;;6.30;99.90;6.20;100905.00;;;;4908012;28;109258;-63
2023/04/08 03:43:55;;;;;;;4.67;3.37;;;6.90;99.90;6.20;100902.00;;;;4907542;28;87824;-64
2023/04/08 03:46:21;;;;;;;8.93;5.50;;;6.40;99.90;6.20;100901.00;;;;4908179;28;118767;-64
2023/04/08 03:48:47;;;;;;;4.27;3.60;;;7.00;99.90;6.30;100909.00;;;;4906097;28;88700;-65
2023/04/08 03:51:13;;;;;;;6.57;3.50;;;6.40;99.90;6.20;100910.00;;;;4905163;28;87810;-64
2023/04/08 03:53:38;;;;;;;9.53;3.73;;;7.00;99.90;6.30;100912.00;;;;4906151;28;107971;-64
2023/04/08 03:56:05;;;;;;;7.57;4.80;;;6.90;99.90;6.30;100910.00;;;;4907624;28;89544;-65
2023/04/08 03:58:31;;;;;;;10.27;4.60;;;6.40;99.90;6.20;100908.00;;;;4908101;28;109235;-66
2023/04/08 04:01:02;;;;;;;9.70;4.40;;;6.60;99.90;6.20;100911.00;;;;4906769;28;89105;-65
2023/04/08 04:03:28;;;;;;;7.63;5.20;;;6.40;99.90;6.20;100915.00;;;;4906730;28;88966;-65
2023/04/08 04:05:54;;;;;;;5.07;3.77;;;6.30;99.90;6.20;100906.00;;;;4904062;28;117338;-65
2023/04/08 04:08:19;;;;;;;7.23;4.97;;;6.30;99.90;6.30;100906.00;;;;4903714;28;102376;-65
2023/04/08 04:10:45;;;;;;;7.40;4.27;;;6.80;99.90;6.30;100918.00;;;;4907002;28;87929;-65
2023/04/08 04:13:20;;;;;;;5.07;4.40;;;6.40;99.90;6.30;100923.00;;;;4904641;28;108686;-65
2023/04/08 04:15:46;;;;;;;7.27;4.67;;;6.40;99.90;6.30;100929.00;;;;4907179;28;88834;-64
2023/04/08 04:18:12;;;;;;;6.53;4.27;;;7.10;99.90;6.30;100932.00;;;;4906895;28;88731;-65
2023/04/08 04:20:41;;;;;;;9.70;4.77;;;6.40;99.90;6.30;100933.00;;;;4905336;28;110714;-65
2023/04/08 04:23:07;;;;;;;8.77;4.37;;;6.40;99.90;6.30;100935.00;;;;4906881;28;87773;-65
2023/04/08 04:25:33;;;;;;;8.50;4.47;;;7.00;99.90;6.30;100933.00;;;;4905626;28;109831;-65
2023/04/08 04:27:59;;;;;;;7.70;4.63;;;6.60;99.90;6.30;100951.00;;;;4906769;28;88659;-66
2023/04/08 04:30:26;;;;;;;9.80;5.77;;;6.80;99.90;6.20;100935.00;;;;4904718;28;87991;-65
2023/04/08 04:32:51;;;;;;;5.97;3.40;;;6.40;99.90;6.30;100941.00;;;;4898839;28;87985;-65
2023/04/08 04:35:17;;;;;;;8.90;5.57;;;6.40;99.90;6.30;100943.00;;;;4905828;28;88017;-66
2023/04/08 04:37:42;;;;;;;10.47;4.97;;;6.40;99.90;6.30;100946.00;;;;4908158;28;117443;-65
2023/04/08 04:40:08;;;;;;;9.00;5.70;;;6.90;99.90;6.30;100950.00;;;;4904324;28;110730;-64
2023/04/08 04:42:34;;;;;;;11.10;7.03;;;6.40;99.90;6.30;100954.00;;;;4910316;28;87846;-65
2023/04/08 04:45:00;;;;;;;10.20;5.67;;;6.40;99.90;6.30;100951.00;;;;4908886;28;90000;-64
2023/04/08 04:47:25;;;;;;;8.80;6.37;;;6.40;99.90;6.30;100956.00;;;;4909558;28;101822;-65
2023/04/08 04:49:51;;;;;;;8.80;6.37;;;6.40;99.90;6.30;100955.00;;;;4907907;28;87833;-64
2023/04/08 04:52:17;;;;;;;9.73;6.60;;;6.60;99.90;6.30;100953.00;;;;4909998;28;108022;-64
2023/04/08 04:54:42;;;;;;;9.37;5.60;;;7.00;99.90;6.30;100965.00;;;;4907590;28;116080;-64
2023/04/08 04:57:10;;;;;;;9.47;7.57;;;6.50;99.90;6.30;100962.00;;;;4909194;28;116897;-65
2023/04/08 04:59:35;;;;;;;14.33;6.90;;;6.50;99.90;6.40;100961.00;;;;4909594;28;87725;-64
2023/04/08 05:02:01;;;;;;;15.00;7.77;;;7.00;99.90;6.40;100963.00;;;;4910871;28;87244;-64
2023/04/08 05:04:27;;;;;;;12.93;7.03;;;7.20;99.90;6.40;100965.00;;;;4908757;28;107353;-64
2023/04/08 05:06:53;;;;;;;10.07;7.10;;;6.60;99.90;6.40;100969.00;;;;4907918;28;109868;-64
2023/04/08 05:09:18;;;;;;;13.93;7.57;;;7.20;99.90;6.50;100956.00;;;;4908050;28;88862;-65
2023/04/08 05:11:44;;;;;;;10.13;7.20;;;6.60;99.90;6.50;100969.00;;;;4908521;28;107957;-64
2023/04/08 05:14:10;;;;;;;10.33;7.70;;;6.70;99.90;6.50;100968.00;;;;4913496;28;114920;-65
2023/04/08 05:16:35;;;;;;;10.97;7.60;;;6.60;99.90;6.50;100983.00;;;;4905639;28;117832;-64
2023/04/08 05:19:01;;;;;;;12.20;7.90;;;6.70;99.90;6.50;100975.00;;;;4911673;28;88057;-63
2023/04/08 05:21:27;;;;;;;14.77;7.90;;;6.70;99.90;6.50;100975.00;;;;4907035;28;107102;-64
2023/04/08 05:23:53;;;;;;;11.33;7.67;;;6.80;99.90;6.60;100985.00;;;;4905890;28;118158;-65
2023/04/08 05:26:27;;;;;;;11.37;7.47;;;6.70;99.90;6.60;100984.00;;;;4910177;28;88861;-65
2023/04/08 05:28:53;;;;;;;15.83;9.63;;;6.80;99.90;6.60;100981.00;;;;4908269;28;88004;-65
2023/04/08 05:31:19;;;;;;;14.57;8.93;;;7.30;99.90;6.60;100983.00;;;;4910756;28;109544;-62
2023/04/08 05:33:46;;;;;;;10.57;7.73;;;6.70;99.90;6.70;100992.00;;;;4909388;28;89688;-64
2023/04/08 05:36:12;;;;;;;13.33;8.53;;;6.80;99.90;6.70;100993.00;;;;4907945;28;110180;-65
2023/04/08 05:38:39;;;;;;;17.93;9.43;;;6.80;99.90;6.70;101007.00;;;;4906720;28;100195;-64
2023/04/08 05:41:05;;;;;;;15.57;8.53;;;7.20;99.90;6.70;100992.00;;;;4908181;28;88035;-63
2023/04/08 05:43:34;;;;;;;14.40;8.67;;;6.80;99.90;6.80;100991.00;;;;4908401;28;89404;-63
2023/04/08 05:45:59;;;;;;;12.73;10.07;;;6.90;99.90;6.80;101002.00;;;;4910113;28;88665;-64
2023/04/08 05:48:25;;;;;;;10.67;8.53;;;7.10;99.90;6.90;101002.00;;;;4909203;28;92742;-64
2023/04/08 05:50:51;;;;;;;15.10;8.73;;;7.00;99.90;6.90;101012.00;;;;4906223;28;108726;-64
2023/04/08 05:53:17;;;;;;;16.47;9.63;;;7.30;99.90;7.00;101016.00;;;;4908502;28;118187;-63
2023/04/08 05:55:42;;;;;;;14.83;9.50;;;7.10;99.90;7.10;101009.00;;;;4907368;28;111254;-64
2023/04/08 05:58:08;;;;;;;16.20;8.70;;;7.10;99.90;7.10;101017.00;;;;4905501;28;110167;-63
2023/04/08 06:00:34;;;;;;;16.27;9.07;;;7.20;99.90;7.20;101020.00;;;;4907862;28;106923;-63
2023/04/08 06:02:59;;;;;;;14.33;8.13;;;8.00;99.90;7.20;101025.00;;;;4908967;28;87825;-64
2023/04/08 06:05:25;;;;;;;12.67;8.57;;;7.20;99.90;7.20;101015.00;;;;4908869;28;118690;-64
2023/04/08 06:07:51;;;;;;;15.00;9.03;;;7.40;99.90;7.30;101034.00;;;;4908905;28;111085;-63
2023/04/08 06:10:17;;;;;;;14.43;8.50;;;7.30;99.90;7.30;101023.00;;;;4909096;28;108421;-65
2023/04/08 06:12:42;;;;;;;16.23;9.27;;;7.40;99.90;7.30;101028.00;;;;4907425;28;117802;-64
2023/04/08 06:15:08;;;;;;;17.77;10.50;;;7.70;99.90;7.40;101028.00;;;;4907113;28;115091;-65
2023/04/08 06:17:38;;;;;;;12.07;8.87;;;7.50;99.90;7.40;101024.00;;;;4908824;28;87914;-64
2023/04/08 06:20:05;;;;;;;16.10;10.13;;;7.60;99.90;7.40;101028.00;;;;4903855;28;110139;-65
2023/04/08 06:22:31;;;;;;;14.40;10.83;;;7.50;99.90;7.50;101033.00;;;;4905922;28;89693;-63
2023/04/08 06:24:57;;;;;;;16.77;9.63;;;7.60;99.90;7.50;101037.00;;;;4902748;28;99238;-63
2023/04/08 06:27:22;;;;;;;22.70;8.87;;;7.60;99.90;7.50;101044.00;;;;4906442;28;114366;-66
2023/04/08 06:29:48;;;;;;;14.83;8.93;;;7.60;99.90;7.60;101049.00;;;;4904140;28;108340;-64
2023/04/08 06:32:14;;;;;;;14.07;8.90;;;7.90;99.90;7.60;101047.00;;;;4906828;28;118215;-65
2023/04/08 06:34:40;;;;;;;12.90;8.53;;;7.70;99.90;7.60;101064.00;;;;4903879;28;89237;-66
2023/04/08 06:37:06;;;;;;;9.87;8.80;;;8.30;99.90;7.60;101058.00;;;;4907229;28;87772;-64
2023/04/08 06:39:32;;;;;;;17.40;9.33;;;7.70;99.90;7.60;101060.00;;;;4901754;28;110010;-65
2023/04/08 06:41:58;;;;;;;15.00;9.17;;;7.70;99.90;7.70;101068.00;;;;4901163;28;100119;-64
2023/04/08 06:44:24;;;;;;;15.40;9.93;;;8.30;99.90;7.70;101073.00;;;;4902043;28;117156;-65
2023/04/08 06:46:50;;;;;;;14.60;8.73;;;7.70;99.90;7.70;101082.00;;;;4902901;28;101519;-64
2023/04/08 06:49:15;;;;;;;16.43;9.50;;;7.80;99.90;7.70;101074.00;;;;4905812;28;88898;-64
2023/04/08 06:51:41;;;;;;;17.43;7.83;;;7.80;99.90;7.80;101077.00;;;;4902858;28;88868;-65
2023/04/08 06:54:08;;;;;;;11.23;8.67;;;7.80;99.90;7.80;101086.00;;;;4905115;28;117628;-64
2023/04/08 06:56:35;;;;;;;11.70;7.60;;;7.90;99.90;7.80;101089.00;;;;4903138;28;87941;-64
2023/04/08 06:59:02;;;;;;;13.57;7.70;;;7.90;99.90;7.80;101101.00;;;;4903865;28;89368;-65
2023/04/08 07:01:27;;;;;;;9.43;6.23;;;7.90;99.90;7.90;101105.00;;;;4902889;28;88862;-64
2023/04/08 07:03:53;;;;;;;13.47;8.00;;;8.20;99.90;8.00;101106.00;;;;4902319;28;93466;-67
2023/04/08 07:06:19;;;;;;;9.70;6.53;;;8.10;99.90;8.10;101101.00;;;;4904054;28;110606;-66
2023/04/08 07:08:45;;;;;;;13.77;7.03;;;8.20;99.90;8.20;101113.00;;;;4901657;28;88198;-66
2023/04/08 07:11:11;;;;;;;11.37;6.97;;;8.20;99.90;8.30;101108.00;;;;4907263;28;89212;-68
2023/04/08 07:13:37;;;;;;;13.97;6.93;;;8.80;99.90;8.30;101122.00;;;;4903772;28;88097;-66
2023/04/08 07:16:02;;;;;;;11.40;6.63;;;8.40;99.90;8.20;101115.00;;;;4904952;28;87931;-67
2023/04/08 07:18:28;;;;;;;9.70;5.63;;;8.30;99.90;8.20;101121.00;;;;4905259;28;88021;-67
2023/04/08 07:20:54;;;;;;;10.07;5.03;;;8.30;99.90;8.10;101120.00;;;;4903198;28;88457;-65
2023/04/08 07:23:20;;;;;;;7.20;4.27;;;8.30;99.90;8.10;101119.00;;;;4902919;28;89328;-66
2023/04/08 07:25:47;;;;;;;9.57;5.40;;;8.20;99.90;8.10;101129.00;;;;4903209;28;88088;-67
2023/04/08 07:28:12;;;;;;;6.77;3.73;;;8.20;99.90;8.10;101130.00;;;;4904694;28;88266;-66
2023/04/08 07:30:38;;;;;;;4.10;3.50;;;8.20;99.90;8.20;101124.00;;;;4905388;28;116647;-67
2023/04/08 07:33:04;;;;;;;4.10;3.60;;;8.10;99.90;8.20;101122.00;;;;4902610;28;118093;-67
2023/04/08 07:35:30;;;;;;;5.77;3.07;;;8.50;99.90;8.30;101122.00;;;;4902355;28;89090;-65
2023/04/08 07:37:56;;;;;;;8.67;3.93;;;8.50;99.90;8.40;101126.00;;;;4904374;28;87936;-66
2023/04/08 07:40:22;;;;;;;4.70;2.73;;;8.40;99.90;8.50;101135.00;;;;4906487;28;108413;-65
2023/04/08 07:42:48;;;;;;;6.50;3.60;;;8.50;99.90;8.50;101133.00;;;;4901929;28;116952;-66
2023/04/08 07:45:14;;;;;;;4.80;2.77;;;8.60;99.90;8.60;101128.00;;;;4901387;28;110692;-65
2023/04/08 07:47:40;;;;;;;5.57;3.03;;;8.60;99.90;8.80;101122.00;;;;4903500;28;88072;-65
2023/04/08 07:50:07;;;;;;;7.03;3.60;;;8.80;99.90;8.90;101129.00;;;;4904464;28;88602;-63
2023/04/08 07:52:33;;;;;;;4.10;3.23;;;8.90;99.90;9.00;101134.00;;;;4902376;28;88202;-65
2023/04/08 07:54:59;;;;;;;4.00;2.60;;;9.00;99.90;9.20;101133.00;;;;4905099;28;98649;-64
2023/04/08 07:57:25;;;;;;;2.87;2.10;;;9.20;99.90;9.30;101130.00;;;;4895185;28;88087;-63
2023/04/08 07:59:51;;;;;;;4.83;3.33;;;9.30;99.90;9.50;101132.00;;;;4901100;28;90222;-65
2023/04/08 08:02:16;;;;;;;5.60;2.70;;;9.50;99.90;9.60;101128.00;;;;4901677;28;117088;-64
2023/04/08 08:04:42;;;;;;;4.13;3.27;;;9.60;99.90;9.70;101142.00;;;;4899975;28;111851;-65
2023/04/08 08:07:20;;;;;;;3.17;2.07;;;9.70;99.90;9.80;101140.00;;;;4899630;28;108949;-65
2023/04/08 08:09:46;;;;;;;3.10;2.80;;;9.80;99.90;9.80;101146.00;;;;4902527;28;113548;-65
2023/04/08 08:12:11;;;;;;;5.63;2.83;;;9.80;99.90;9.70;101150.00;;;;4919600;28;117845;-65
2023/04/08 08:14:37;;;;;;;4.63;3.30;;;9.80;99.90;9.70;101155.00;;;;4924034;28;109285;-66
2023/04/08 08:17:03;;;;;;;6.73;3.33;;;9.70;99.90;9.70;101151.00;;;;4924729;28;109244;-66
2023/04/08 08:19:29;;;;;;;3.93;2.97;;;9.80;99.90;9.80;101158.00;;;;4923471;28;88968;-67
2023/04/08 08:21:55;;;;;;;4.13;2.73;;;9.80;99.90;9.90;101160.00;;;;4907486;28;88103;-66
2023/04/08 08:24:21;;;;;;;4.97;3.67;;;9.80;99.90;10.00;101157.00;;;;4916802;28;88871;-66
2023/04/08 08:26:48;;;;;;;4.67;2.57;;;10.00;99.90;10.10;101164.00;;;;4921403;28;102220;-66
2023/04/08 08:29:14;;;;;;;4.63;3.60;;;10.10;99.90;10.10;101166.00;;;;4924337;28;88209;-65
2023/04/08 08:31:39;;;;;;;4.30;3.10;;;10.10;99.90;10.10;101161.00;;;;4924411;28;117372;-66
2023/04/08 08:34:05;;;;;;;6.93;4.10;;;10.10;99.90;10.10;101164.00;;;;4924949;28;88101;-67
2023/04/08 08:36:31;;;;;;;4.83;3.10;;;10.10;99.90;10.10;101162.00;;;;4927498;28;88091;-66
2023/04/08 08:38:56;;;;;;;6.93;4.60;;;10.20;99.90;10.10;101167.00;;;;4923177;28;118052;-66
2023/04/08 08:41:22;;;;;;;4.23;2.93;;;10.20;99.90;10.20;101173.00;;;;4923201;28;117601;-66
2023/04/08 08:43:48;;;;;;;4.83;3.03;;;10.20;99.90;10.30;101179.00;;;;4923438;28;110994;-67
2023/04/08 08:46:16;;;;;;;5.83;2.97;;;10.30;99.90;10.30;101175.00;;;;4920355;28;108562;-65
2023/04/08 08:48:43;;;;;;;5.10;4.13;;;10.30;99.90;10.30;101176.00;;;;4923106;28;89958;-66
2023/04/08 08:51:10;;;;;;;6.17;3.53;;;10.30;99.90;10.30;101188.00;;;;4923560;28;107596;-66
2023/04/08 08:53:36;;;;;;;6.23;3.73;;;10.30;99.90;10.30;101182.00;;;;4919656;28;89362;-66
2023/04/08 08:56:02;;;;;;;5.87;3.67;;;10.30;99.90;10.30;101176.00;;;;4925074;28;88075;-65
2023/04/08 08:58:28;;;;;;;6.67;3.47;;;10.30;99.90;10.30;101184.00;;;;4922427;28;88169;-66
2023/04/08 09:00:54;;;;;;;6.00;3.83;;;10.40;99.90;10.20;101186.00;;;;4916917;28;116762;-66
2023/04/08 09:03:27;;;;;;;3.77;3.20;;;10.30;99.90;10.10;101195.00;;;;4923170;28;110771;-66
2023/04/08 09:06:11;;;;;;;8.33;4.40;;;10.20;99.90;10.10;101198.00;;;;4927580;28;87130;-65
2023/04/08 09:08:37;;;;;;;6.50;3.80;;;10.10;99.90;10.10;101191.00;;;;4910276;28;87854;-68
2023/04/08 09:11:15;;;;;;;4.00;2.97;;;10.10;99.90;10.10;101194.00;;;;4924638;28;116672;-65
2023/04/08 09:13:42;;;;;;;4.73;3.77;;;10.10;99.90;10.20;101196.00;;;;4926198;28;89441;-67
2023/04/08 09:16:18;;;;;;;6.17;4.13;;;10.20;99.90;10.40;101203.00;;;;4905445;28;96991;-65
2023/04/08 09:18:47;;;;;;;6.53;4.80;;;10.30;99.90;10.50;101199.00;;;;4922875;28;87933;-66
2023/04/08 09:21:15;;;;;;;7.57;3.93;;;10.50;99.90;10.60;101207.00;;;;4922958;28;88888;-65
2023/04/08 09:23:50;;;;;;;5.43;4.90;;;10.50;99.90;10.70;101213.00;;;;4923340;28;88954;-66
2023/04/08 09:26:21;;;;;;;7.43;4.07;;;10.60;99.90;10.80;101208.00;;;;4922105;28;89874;-66
2023/04/08 09:29:07;;;;;;;9.20;5.67;;;10.70;99.90;10.80;101217.00;;;;4907172;28;89786;-66
2023/04/08 09:31:43;;;;;;;6.53;4.00;;;10.80;99.90;10.80;101216.00;;;;4922805;28;88772;-65
2023/04/08 09:34:18;;;;;;;7.83;4.87;;;10.90;99.90;10.80;101223.00;;;;4923272;28;88331;-67
2023/04/08 09:36:44;;;;;;;9.50;5.30;;;10.80;99.90;10.80;101217.00;;;;4921799;28;88912;-67
2023/04/08 09:39:10;;;;;;;13.20;7.87;;;10.80;99.90;10.70;101226.00;;;;4922960;28;89012;-66
2023/04/08 09:41:38;;;;;;;7.33;4.77;;;10.70;99.90;10.60;101243.00;;;;4922097;28;88760;-66
2023/04/08 09:44:10;;;;;;;8.10;5.50;;;10.70;99.90;10.50;101229.00;;;;4923370;28;94709;-67
2023/04/08 09:46:48;;;;;;;8.10;5.27;;;10.30;99.90;10.40;101241.00;;;;4925637;28;87876;-65
2023/04/08 09:49:33;;;;;;;7.83;5.40;;;10.50;99.90;10.40;101234.00;;;;4922090;28;103274;-66
2023/04/08 09:52:20;;;;;;;9.30;6.03;;;10.50;99.90;10.40;101223.00;;;;4905997;28;111913;-65
2023/04/08 09:55:03;;;;;;;7.87;5.33;;;10.40;99.90;10.40;101234.00;;;;4920833;28;102348;-65
2023/04/08 09:57:43;;;;;;;5.50;4.20;;;10.50;99.90;10.50;101234.00;;;;4923356;28;87100;-67
2023/04/08 10:00:15;;;;;;;9.23;4.77;;;10.60;99.90;10.60;101220.00;;;;4919423;28;88233;-66
2023/04/08 10:03:09;;;;;;;5.30;3.43;;;10.60;99.90;10.70;101223.00;;;;4926805;28;87741;-66
2023/04/08 10:05:38;;;;;;;9.30;4.87;;;10.70;99.90;10.80;101244.00;;;;4921815;28;88965;-65
2023/04/08 10:08:05;;;;;;;5.67;4.00;;;10.80;99.90;10.80;101242.00;;;;4924658;28;87942;-67
2023/04/08 10:10:33;;;;;;;7.43;4.80;;;10.80;99.90;10.90;101237.00;;;;4911877;28;89232;-67
2023/04/08 10:13:00;;;;;;;4.77;3.47;;;10.80;99.90;10.80;101238.00;;;;4904481;28;88733;-66
2023/04/08 10:15:28;;;;;;;6.80;4.10;;;10.80;99.90;10.80;101240.00;;;;4904177;28;87962;-66
2023/04/08 10:18:01;;;;;;;4.73;3.93;;;10.80;99.90;10.80;101248.00;;;;4925311;28;87836;-65
2023/04/08 10:20:36;;;;;;;6.97;4.77;;;10.80;99.90;10.70;101253.00;;;;4921964;28;88481;-65
2023/04/08 10:23:12;;;;;;;8.90;5.30;;;10.80;99.90;10.60;101243.00;;;;4925555;28;87153;-66
2023/04/08 10:25:46;;;;;;;7.17;4.73;;;10.70;99.90;10.50;101247.00;;;;4923825;28;87656;-65
2023/04/08 10:28:12;;;;;;;10.30;5.90;;;10.60;99.90;10.40;101250.00;;;;4926548;28;87881;-65
2023/04/08 10:30:41;;;;;;;9.80;6.20;;;10.50;99.90;10.40;101255.00;;;;4924543;28;89744;-67
2023/04/08 10:33:13;;;;;;;8.67;5.53;;;10.40;99.90;10.20;101261.00;;;;4923718;28;88088;-66
2023/04/08 10:35:47;;;;;;;6.10;4.57;;;10.30;99.90;10.00;101272.00;;;;4909318;28;88165;-65
2023/04/08 10:38:16;;;;;;;9.87;4.97;;;10.20;99.90;9.80;101273.00;;;;4925707;28;87932;-66
2023/04/08 10:40:43;;;;;;;5.37;4.60;;;10.00;99.90;9.60;101279.00;;;;4924065;28;103050;-66
2023/04/08 10:43:10;;;;;;;6.30;4.40;;;9.80;99.90;9.50;101276.00;;;;4924283;28;88815;-65
2023/04/08 10:45:40;;;;;;;8.33;5.53;;;9.60;99.90;9.40;101280.00;;;;4919960;28;88379;-65
2023/04/08 10:48:18;;;;;;;6.90;4.07;;;9.50;99.90;9.40;101285.00;;;;4920118;28;107423;-65
2023/04/08 10:50:59;;;;;;;6.50;4.87;;;9.50;99.90;9.30;101275.00;;;;4897110;28;88213;-66
2023/04/08 10:53:36;;;;;;;8.70;4.00;;;9.40;99.90;9.40;101278.00;;;;4922345;28;88686;-65
2023/04/08 10:56:15;;;;;;;9.07;4.43;;;9.50;99.90;9.60;101278.00;;;;4909769;28;88892;-66
2023/04/08 10:58:55;;;;;;;4.30;3.53;;;9.60;99.90;9.80;101283.00;;;;4922926;28;89430;-65